Airfield :
LOGIN :

Register | Disclaimer

   EN    FR    IT 

 










Legend :    VFR   Marginal VFR   IFR   Intensive IFR   Very Intensive IFR
Visi :
Ceiling :
>= 8 km
>= 3000ft
5 to 8 km
1000 to 3000 ft
1500m to 5 km
500 to 1000 ft
800 to 1500m
200 to 500 ft
< 800m
< 200 ft
Symbols :   Thunderstorms  Fog  Heavy snow  Heavy precipitations  Wind > 20 kt
SIGMETs :     Misc.  Thunderstorms  Icing  Turbulence  Mountain Waves  Volcanic Ashes






- Airport Elevation : 587 ft
- IATA code : XCR


LFOK - Chalons Vatry

CURRENT METAR :
  • 272330Z AUTO 08006KT CAVOK 04/03 Q1016 TEMPO 0300 FG VV///

EXPIRED METARs :
  • 272300Z AUTO 08004KT 050V120 9999 FEW001 03/02 Q1016 TEMPO 0300 FG VV///
  • 272230Z AUTO 11007KT 9999 FEW001 05/04 Q1016 TEMPO 0300 FG VV///
  • 272200Z AUTO 12007KT 9999 VV/// 05/04 Q1016 TEMPO 0300 FG
  • 272130Z AUTO 08005KT 3600 1400 R10/1000U R28/P5000 BR VV/// 04/03 Q1016 TEMPO 0300 FG
  • 272100Z AUTO 06005KT 0600 0500 R10/0600N R28/0750D FG VV/// 04/04 Q1016 TEMPO 0300 FG

TAF TAF LFOK
Valid from the 28 at 00:00 until the 29 at 00:00 UTC


272300Z 2800/2824 04005KT 8000 NSC
PROB30
TEMPO 2800/2808 0300 FG VV///



MET'MAP, your aeronautical weather chart ! - Copyright ORBIFLY December 2007 - Disclaimer

ORBIFLY MET'MAP TEAM :

Programming & Development : Alexandra Zaïnal
Concept & original design : Baudouin d'Aumeries
Assistance for programming : Marc-Olivier Méhu
Technical & hardware support : Manuel Goepfert

Contact : metmap@orbifly.com




SOURCES & CREDITS :

   NOAA